sensor_id;sensor_type;location;lat;lon;timestamp;P1;durP1;ratioP1;P2;durP2;ratioP2
79401;SDS011;68857;47.916;106.940;2023-09-19T00:00:45;27.17;;;11.55;;
79401;SDS011;68857;47.916;106.940;2023-09-19T00:03:12;27.98;;;12.13;;
79401;SDS011;68857;47.916;106.940;2023-09-19T00:05:39;24.42;;;11.18;;
79401;SDS011;68857;47.916;106.940;2023-09-19T00:08:09;25.25;;;11.18;;
79401;SDS011;68857;47.916;106.940;2023-09-19T00:10:38;20.73;;;9.52;;
79401;SDS011;68857;47.916;106.940;2023-09-19T00:13:06;20.88;;;10.48;;
79401;SDS011;68857;47.916;106.940;2023-09-19T00:15:39;20.58;;;12.15;;
79401;SDS011;68857;47.916;106.940;2023-09-19T00:18:06;26.38;;;10.73;;
79401;SDS011;68857;47.916;106.940;2023-09-19T00:20:37;17.88;;;9.38;;
79401;SDS011;68857;47.916;106.940;2023-09-19T00:23:04;17.95;;;9.55;;
79401;SDS011;68857;47.916;106.940;2023-09-19T00:25:30;19.27;;;9.05;;
79401;SDS011;68857;47.916;106.940;2023-09-19T00:28:01;21.73;;;8.68;;
79401;SDS011;68857;47.916;106.940;2023-09-19T00:30:27;16.48;;;8.57;;
79401;SDS011;68857;47.916;106.940;2023-09-19T00:32:54;17.90;;;8.32;;
79401;SDS011;68857;47.916;106.940;2023-09-19T00:35:21;19.63;;;8.32;;
79401;SDS011;68857;47.916;106.940;2023-09-19T00:37:51;16.77;;;7.53;;
79401;SDS011;68857;47.916;106.940;2023-09-19T00:40:18;13.77;;;7.32;;
79401;SDS011;68857;47.916;106.940;2023-09-19T00:42:46;15.63;;;9.07;;
79401;SDS011;68857;47.916;106.940;2023-09-19T00:45:14;14.90;;;8.18;;
79401;SDS011;68857;47.916;106.940;2023-09-19T00:47:41;18.55;;;9.23;;
79401;SDS011;68857;47.916;106.940;2023-09-19T00:50:08;14.48;;;7.50;;
79401;SDS011;68857;47.916;106.940;2023-09-19T00:52:39;14.77;;;7.88;;
79401;SDS011;68857;47.916;106.940;2023-09-19T00:55:06;14.25;;;7.07;;
79401;SDS011;68857;47.916;106.940;2023-09-19T00:57:34;13.60;;;6.78;;
79401;SDS011;68857;47.916;106.940;2023-09-19T01:00:02;14.65;;;7.72;;
79401;SDS011;68857;47.916;106.940;2023-09-19T01:02:32;13.43;;;6.82;;
79401;SDS011;68857;47.916;106.940;2023-09-19T01:04:59;11.98;;;7.25;;
79401;SDS011;68857;47.916;106.940;2023-09-19T01:07:29;14.68;;;7.07;;
79401;SDS011;68857;47.916;106.940;2023-09-19T01:09:56;14.43;;;7.78;;
79401;SDS011;68857;47.916;106.940;2023-09-19T01:12:33;14.75;;;7.65;;
79401;SDS011;68857;47.916;106.940;2023-09-19T01:15:55;12.40;;;7.57;;
79401;SDS011;68857;47.916;106.940;2023-09-19T01:18:40;10.57;;;7.88;;
79401;SDS011;68857;47.916;106.940;2023-09-19T01:25:56;11.95;;;7.47;;
79401;SDS011;68857;47.916;106.940;2023-09-19T01:31:31;13.60;;;6.97;;
79401;SDS011;68857;47.916;106.940;2023-09-19T01:34:02;10.40;;;6.47;;
79401;SDS011;68857;47.916;106.940;2023-09-19T01:36:34;10.52;;;6.25;;
79401;SDS011;68857;47.916;106.940;2023-09-19T01:39:08;11.73;;;6.95;;
79401;SDS011;68857;47.916;106.940;2023-09-19T01:41:38;13.82;;;7.45;;
79401;SDS011;68857;47.916;106.940;2023-09-19T01:44:09;11.93;;;6.40;;
79401;SDS011;68857;47.916;106.940;2023-09-19T01:46:38;11.10;;;6.97;;
79401;SDS011;68857;47.916;106.940;2023-09-19T01:54:12;8.30;;;5.82;;
79401;SDS011;68857;47.916;106.940;2023-09-19T01:56:45;12.18;;;6.38;;
79401;SDS011;68857;47.916;106.940;2023-09-19T01:59:13;10.25;;;6.13;;
79401;SDS011;68857;47.916;106.940;2023-09-19T02:01:40;8.43;;;5.70;;
79401;SDS011;68857;47.916;106.940;2023-09-19T02:04:09;9.35;;;6.00;;
79401;SDS011;68857;47.916;106.940;2023-09-19T02:06:40;9.98;;;5.80;;
79401;SDS011;68857;47.916;106.940;2023-09-19T02:09:07;9.32;;;5.32;;
79401;SDS011;68857;47.916;106.940;2023-09-19T02:11:34;8.55;;;5.70;;
79401;SDS011;68857;47.916;106.940;2023-09-19T02:14:02;9.52;;;5.78;;
79401;SDS011;68857;47.916;106.940;2023-09-19T02:16:29;11.40;;;5.95;;
79401;SDS011;68857;47.916;106.940;2023-09-19T02:18:56;8.65;;;5.07;;
79401;SDS011;68857;47.916;106.940;2023-09-19T02:21:22;9.55;;;5.72;;
79401;SDS011;68857;47.916;106.940;2023-09-19T02:23:49;11.27;;;5.57;;
79401;SDS011;68857;47.916;106.940;2023-09-19T02:26:16;10.10;;;5.70;;
79401;SDS011;68857;47.916;106.940;2023-09-19T02:28:44;10.48;;;5.50;;
79401;SDS011;68857;47.916;106.940;2023-09-19T02:31:11;8.18;;;5.18;;
79401;SDS011;68857;47.916;106.940;2023-09-19T02:33:38;10.48;;;5.57;;
79401;SDS011;68857;47.916;106.940;2023-09-19T02:36:04;8.27;;;4.78;;
79401;SDS011;68857;47.916;106.940;2023-09-19T02:38:31;9.32;;;5.63;;
79401;SDS011;68857;47.916;106.940;2023-09-19T02:40:57;8.45;;;4.70;;
79401;SDS011;68857;47.916;106.940;2023-09-19T02:43:24;10.75;;;5.75;;
79401;SDS011;68857;47.916;106.940;2023-09-19T02:45:51;8.63;;;6.13;;
79401;SDS011;68857;47.916;106.940;2023-09-19T02:48:22;7.88;;;4.80;;
79401;SDS011;68857;47.916;106.940;2023-09-19T02:50:50;6.90;;;4.32;;
79401;SDS011;68857;47.916;106.940;2023-09-19T02:53:17;7.25;;;4.93;;
79401;SDS011;68857;47.916;106.940;2023-09-19T02:55:44;7.15;;;4.82;;
79401;SDS011;68857;47.916;106.940;2023-09-19T02:58:11;7.65;;;4.25;;
79401;SDS011;68857;47.916;106.940;2023-09-19T03:00:39;8.25;;;4.88;;
79401;SDS011;68857;47.916;106.940;2023-09-19T03:03:07;7.07;;;4.30;;
79401;SDS011;68857;47.916;106.940;2023-09-19T03:05:34;6.53;;;4.00;;
79401;SDS011;68857;47.916;106.940;2023-09-19T03:08:01;6.05;;;4.15;;
79401;SDS011;68857;47.916;106.940;2023-09-19T03:10:28;5.35;;;3.67;;
79401;SDS011;68857;47.916;106.940;2023-09-19T03:12:56;5.65;;;3.95;;
79401;SDS011;68857;47.916;106.940;2023-09-19T03:15:25;11.75;;;5.03;;
79401;SDS011;68857;47.916;106.940;2023-09-19T03:17:52;8.35;;;4.90;;
79401;SDS011;68857;47.916;106.940;2023-09-19T03:20:19;11.13;;;4.85;;
79401;SDS011;68857;47.916;106.940;2023-09-19T03:22:46;12.60;;;4.63;;
79401;SDS011;68857;47.916;106.940;2023-09-19T03:25:13;11.65;;;5.25;;
79401;SDS011;68857;47.916;106.940;2023-09-19T03:27:40;11.13;;;4.57;;
79401;SDS011;68857;47.916;106.940;2023-09-19T03:30:07;9.80;;;5.03;;
79401;SDS011;68857;47.916;106.940;2023-09-19T03:32:37;8.55;;;4.47;;
79401;SDS011;68857;47.916;106.940;2023-09-19T03:35:03;12.90;;;5.40;;
79401;SDS011;68857;47.916;106.940;2023-09-19T03:37:30;12.40;;;5.35;;
79401;SDS011;68857;47.916;106.940;2023-09-19T03:39:58;14.48;;;6.60;;
79401;SDS011;68857;47.916;106.940;2023-09-19T03:42:24;10.73;;;5.45;;
79401;SDS011;68857;47.916;106.940;2023-09-19T03:44:52;11.70;;;6.18;;
79401;SDS011;68857;47.916;106.940;2023-09-19T03:47:20;12.60;;;6.22;;
79401;SDS011;68857;47.916;106.940;2023-09-19T03:49:46;14.25;;;4.93;;
79401;SDS011;68857;47.916;106.940;2023-09-19T03:52:13;14.77;;;5.95;;
79401;SDS011;68857;47.916;106.940;2023-09-19T03:54:42;13.02;;;6.25;;
79401;SDS011;68857;47.916;106.940;2023-09-19T03:57:09;12.48;;;6.07;;
79401;SDS011;68857;47.916;106.940;2023-09-19T03:59:38;15.40;;;6.07;;
79401;SDS011;68857;47.916;106.940;2023-09-19T04:02:04;13.13;;;5.85;;
79401;SDS011;68857;47.916;106.940;2023-09-19T04:04:37;17.58;;;7.18;;
79401;SDS011;68857;47.916;106.940;2023-09-19T04:07:03;17.40;;;7.20;;
79401;SDS011;68857;47.916;106.940;2023-09-19T04:09:30;16.90;;;7.72;;
79401;SDS011;68857;47.916;106.940;2023-09-19T04:11:56;18.23;;;6.82;;
79401;SDS011;68857;47.916;106.940;2023-09-19T04:14:23;15.48;;;6.95;;
79401;SDS011;68857;47.916;106.940;2023-09-19T04:16:50;18.58;;;7.20;;
79401;SDS011;68857;47.916;106.940;2023-09-19T04:19:16;13.00;;;6.82;;
79401;SDS011;68857;47.916;106.940;2023-09-19T04:21:43;14.85;;;7.03;;
79401;SDS011;68857;47.916;106.940;2023-09-19T04:24:10;16.02;;;6.78;;
79401;SDS011;68857;47.916;106.940;2023-09-19T04:26:38;16.00;;;7.47;;
79401;SDS011;68857;47.916;106.940;2023-09-19T04:29:05;16.83;;;7.07;;
79401;SDS011;68857;47.916;106.940;2023-09-19T04:31:31;15.77;;;7.65;;
79401;SDS011;68857;47.916;106.940;2023-09-19T04:33:58;13.82;;;6.25;;
79401;SDS011;68857;47.916;106.940;2023-09-19T04:36:30;16.23;;;6.30;;
79401;SDS011;68857;47.916;106.940;2023-09-19T04:38:56;18.17;;;6.13;;
79401;SDS011;68857;47.916;106.940;2023-09-19T04:41:23;16.67;;;6.65;;
79401;SDS011;68857;47.916;106.940;2023-09-19T04:43:49;13.95;;;5.55;;
79401;SDS011;68857;47.916;106.940;2023-09-19T04:46:16;17.40;;;6.43;;
79401;SDS011;68857;47.916;106.940;2023-09-19T04:48:43;15.48;;;5.95;;
79401;SDS011;68857;47.916;106.940;2023-09-19T04:51:09;13.52;;;6.30;;
79401;SDS011;68857;47.916;106.940;2023-09-19T04:53:36;17.80;;;6.30;;
79401;SDS011;68857;47.916;106.940;2023-09-19T04:56:03;16.70;;;7.40;;
79401;SDS011;68857;47.916;106.940;2023-09-19T04:58:32;12.55;;;6.78;;
79401;SDS011;68857;47.916;106.940;2023-09-19T05:00:59;14.13;;;6.43;;
79401;SDS011;68857;47.916;106.940;2023-09-19T05:03:28;14.93;;;5.55;;
79401;SDS011;68857;47.916;106.940;2023-09-19T05:05:54;10.98;;;5.00;;
79401;SDS011;68857;47.916;106.940;2023-09-19T05:08:21;14.68;;;5.70;;
79401;SDS011;68857;47.916;106.940;2023-09-19T05:10:48;15.65;;;5.88;;
79401;SDS011;68857;47.916;106.940;2023-09-19T05:13:15;14.23;;;5.45;;
79401;SDS011;68857;47.916;106.940;2023-09-19T05:15:42;13.68;;;5.70;;
79401;SDS011;68857;47.916;106.940;2023-09-19T05:18:08;11.75;;;5.13;;
79401;SDS011;68857;47.916;106.940;2023-09-19T05:20:36;13.68;;;5.90;;
79401;SDS011;68857;47.916;106.940;2023-09-19T05:23:05;12.10;;;5.00;;
79401;SDS011;68857;47.916;106.940;2023-09-19T05:25:37;13.77;;;4.85;;
79401;SDS011;68857;47.916;106.940;2023-09-19T05:28:07;8.65;;;4.07;;
79401;SDS011;68857;47.916;106.940;2023-09-19T05:30:35;12.70;;;5.50;;
79401;SDS011;68857;47.916;106.940;2023-09-19T05:33:02;11.98;;;5.35;;
79401;SDS011;68857;47.916;106.940;2023-09-19T05:35:29;12.63;;;5.57;;
79401;SDS011;68857;47.916;106.940;2023-09-19T05:37:56;11.43;;;4.22;;
79401;SDS011;68857;47.916;106.940;2023-09-19T05:40:24;9.35;;;5.68;;
79401;SDS011;68857;47.916;106.940;2023-09-19T05:42:51;13.18;;;5.25;;
79401;SDS011;68857;47.916;106.940;2023-09-19T05:45:17;10.48;;;4.60;;
79401;SDS011;68857;47.916;106.940;2023-09-19T05:47:51;10.13;;;4.60;;
79401;SDS011;68857;47.916;106.940;2023-09-19T05:50:21;10.02;;;5.07;;
79401;SDS011;68857;47.916;106.940;2023-09-19T05:52:52;7.57;;;4.63;;
79401;SDS011;68857;47.916;106.940;2023-09-19T05:55:19;13.75;;;5.32;;
79401;SDS011;68857;47.916;106.940;2023-09-19T05:57:50;10.70;;;4.85;;
79401;SDS011;68857;47.916;106.940;2023-09-19T06:00:19;11.73;;;5.07;;
79401;SDS011;68857;47.916;106.940;2023-09-19T06:02:52;11.77;;;5.30;;
79401;SDS011;68857;47.916;106.940;2023-09-19T06:05:19;11.00;;;4.75;;
79401;SDS011;68857;47.916;106.940;2023-09-19T06:07:46;9.77;;;4.57;;
79401;SDS011;68857;47.916;106.940;2023-09-19T06:10:12;9.82;;;5.05;;
79401;SDS011;68857;47.916;106.940;2023-09-19T06:12:43;10.65;;;4.57;;
79401;SDS011;68857;47.916;106.940;2023-09-19T06:15:09;11.45;;;5.13;;
79401;SDS011;68857;47.916;106.940;2023-09-19T06:17:47;9.68;;;7.80;;
79401;SDS011;68857;47.916;106.940;2023-09-19T06:20:14;9.63;;;4.78;;
79401;SDS011;68857;47.916;106.940;2023-09-19T06:22:42;10.80;;;3.85;;
79401;SDS011;68857;47.916;106.940;2023-09-19T06:25:09;10.35;;;5.20;;
79401;SDS011;68857;47.916;106.940;2023-09-19T06:27:44;8.57;;;4.25;;
79401;SDS011;68857;47.916;106.940;2023-09-19T06:30:11;6.80;;;3.55;;
79401;SDS011;68857;47.916;106.940;2023-09-19T06:32:39;11.25;;;5.18;;
79401;SDS011;68857;47.916;106.940;2023-09-19T06:35:15;9.18;;;4.35;;
79401;SDS011;68857;47.916;106.940;2023-09-19T06:37:42;9.73;;;3.97;;
79401;SDS011;68857;47.916;106.940;2023-09-19T06:40:13;8.85;;;3.75;;
79401;SDS011;68857;47.916;106.940;2023-09-19T06:42:43;10.43;;;3.78;;
79401;SDS011;68857;47.916;106.940;2023-09-19T06:45:11;9.02;;;3.95;;
79401;SDS011;68857;47.916;106.940;2023-09-19T06:47:43;9.57;;;4.03;;
79401;SDS011;68857;47.916;106.940;2023-09-19T06:50:11;7.75;;;3.88;;
79401;SDS011;68857;47.916;106.940;2023-09-19T06:52:43;10.18;;;6.28;;
79401;SDS011;68857;47.916;106.940;2023-09-19T06:55:11;13.43;;;3.15;;
79401;SDS011;68857;47.916;106.940;2023-09-19T06:57:41;12.00;;;4.00;;
79401;SDS011;68857;47.916;106.940;2023-09-19T07:00:09;8.93;;;3.72;;
79401;SDS011;68857;47.916;106.940;2023-09-19T07:03:03;8.77;;;3.33;;
79401;SDS011;68857;47.916;106.940;2023-09-19T07:05:35;6.63;;;3.17;;
79401;SDS011;68857;47.916;106.940;2023-09-19T07:08:03;8.88;;;3.67;;
79401;SDS011;68857;47.916;106.940;2023-09-19T07:10:29;8.07;;;3.58;;
79401;SDS011;68857;47.916;106.940;2023-09-19T07:12:57;7.50;;;3.05;;
79401;SDS011;68857;47.916;106.940;2023-09-19T07:15:25;6.10;;;3.05;;
79401;SDS011;68857;47.916;106.940;2023-09-19T07:17:52;5.22;;;3.42;;
79401;SDS011;68857;47.916;106.940;2023-09-19T07:20:19;5.88;;;2.88;;
79401;SDS011;68857;47.916;106.940;2023-09-19T07:22:46;6.93;;;3.15;;
79401;SDS011;68857;47.916;106.940;2023-09-19T07:25:13;5.32;;;3.30;;
79401;SDS011;68857;47.916;106.940;2023-09-19T07:27:40;11.55;;;3.65;;
79401;SDS011;68857;47.916;106.940;2023-09-19T07:30:07;6.65;;;3.53;;
79401;SDS011;68857;47.916;106.940;2023-09-19T07:32:35;5.82;;;2.78;;
79401;SDS011;68857;47.916;106.940;2023-09-19T07:35:02;7.95;;;3.28;;
79401;SDS011;68857;47.916;106.940;2023-09-19T07:37:29;8.07;;;2.85;;
79401;SDS011;68857;47.916;106.940;2023-09-19T07:39:58;5.78;;;2.97;;
79401;SDS011;68857;47.916;106.940;2023-09-19T07:42:26;5.65;;;2.83;;
79401;SDS011;68857;47.916;106.940;2023-09-19T07:44:53;5.50;;;2.60;;
79401;SDS011;68857;47.916;106.940;2023-09-19T07:47:20;7.40;;;3.20;;
79401;SDS011;68857;47.916;106.940;2023-09-19T07:49:47;6.20;;;2.72;;
79401;SDS011;68857;47.916;106.940;2023-09-19T07:52:14;5.82;;;3.03;;
79401;SDS011;68857;47.916;106.940;2023-09-19T07:54:41;5.55;;;2.95;;
79401;SDS011;68857;47.916;106.940;2023-09-19T07:57:10;6.95;;;2.97;;
79401;SDS011;68857;47.916;106.940;2023-09-19T07:59:37;6.38;;;2.58;;
79401;SDS011;68857;47.916;106.940;2023-09-19T08:02:04;4.72;;;3.30;;
79401;SDS011;68857;47.916;106.940;2023-09-19T08:04:33;12.32;;;3.47;;
79401;SDS011;68857;47.916;106.940;2023-09-19T08:07:00;8.52;;;2.63;;
79401;SDS011;68857;47.916;106.940;2023-09-19T08:09:29;6.32;;;2.90;;
79401;SDS011;68857;47.916;106.940;2023-09-19T08:11:58;7.07;;;3.50;;
79401;SDS011;68857;47.916;106.940;2023-09-19T08:14:28;9.60;;;3.00;;
79401;SDS011;68857;47.916;106.940;2023-09-19T08:16:57;8.07;;;2.85;;
79401;SDS011;68857;47.916;106.940;2023-09-19T08:19:24;5.63;;;2.75;;
79401;SDS011;68857;47.916;106.940;2023-09-19T08:21:56;6.53;;;2.65;;
79401;SDS011;68857;47.916;106.940;2023-09-19T08:24:27;6.13;;;3.03;;
79401;SDS011;68857;47.916;106.940;2023-09-19T08:26:54;6.60;;;3.47;;
79401;SDS011;68857;47.916;106.940;2023-09-19T08:29:21;6.18;;;3.22;;
79401;SDS011;68857;47.916;106.940;2023-09-19T08:31:56;7.45;;;2.72;;
79401;SDS011;68857;47.916;106.940;2023-09-19T08:34:23;5.88;;;2.65;;
79401;SDS011;68857;47.916;106.940;2023-09-19T08:36:50;7.40;;;2.70;;
79401;SDS011;68857;47.916;106.940;2023-09-19T08:39:18;7.70;;;3.47;;
79401;SDS011;68857;47.916;106.940;2023-09-19T08:41:45;9.40;;;2.30;;
79401;SDS011;68857;47.916;106.940;2023-09-19T08:44:11;7.15;;;2.15;;
79401;SDS011;68857;47.916;106.940;2023-09-19T08:46:38;4.22;;;2.75;;
79401;SDS011;68857;47.916;106.940;2023-09-19T08:49:18;7.80;;;2.38;;
79401;SDS011;68857;47.916;106.940;2023-09-19T08:51:49;5.72;;;3.10;;
79401;SDS011;68857;47.916;106.940;2023-09-19T08:54:24;5.15;;;2.70;;
79401;SDS011;68857;47.916;106.940;2023-09-19T08:56:54;6.45;;;3.03;;
79401;SDS011;68857;47.916;106.940;2023-09-19T08:59:22;7.43;;;2.33;;
79401;SDS011;68857;47.916;106.940;2023-09-19T09:01:49;5.43;;;2.70;;
79401;SDS011;68857;47.916;106.940;2023-09-19T09:04:19;7.88;;;2.20;;
79401;SDS011;68857;47.916;106.940;2023-09-19T09:06:46;5.70;;;2.35;;
79401;SDS011;68857;47.916;106.940;2023-09-19T09:09:14;5.72;;;2.25;;
79401;SDS011;68857;47.916;106.940;2023-09-19T09:11:41;5.68;;;1.77;;
79401;SDS011;68857;47.916;106.940;2023-09-19T09:14:07;6.20;;;2.30;;
79401;SDS011;68857;47.916;106.940;2023-09-19T09:16:34;6.38;;;2.97;;
79401;SDS011;68857;47.916;106.940;2023-09-19T09:19:01;8.45;;;2.33;;
79401;SDS011;68857;47.916;106.940;2023-09-19T09:21:28;5.45;;;2.40;;
79401;SDS011;68857;47.916;106.940;2023-09-19T09:23:54;4.85;;;2.40;;
79401;SDS011;68857;47.916;106.940;2023-09-19T09:29:06;5.40;;;2.17;;
79401;SDS011;68857;47.916;106.940;2023-09-19T09:31:33;4.13;;;2.25;;
79401;SDS011;68857;47.916;106.940;2023-09-19T09:34:00;5.10;;;2.67;;
79401;SDS011;68857;47.916;106.940;2023-09-19T09:36:39;3.33;;;1.77;;
79401;SDS011;68857;47.916;106.940;2023-09-19T09:39:09;3.42;;;1.80;;
79401;SDS011;68857;47.916;106.940;2023-09-19T09:41:50;3.03;;;1.85;;
79401;SDS011;68857;47.916;106.940;2023-09-19T09:44:25;5.20;;;2.67;;
79401;SDS011;68857;47.916;106.940;2023-09-19T09:46:57;5.10;;;1.88;;
79401;SDS011;68857;47.916;106.940;2023-09-19T09:49:43;4.18;;;2.05;;
79401;SDS011;68857;47.916;106.940;2023-09-19T09:52:19;4.07;;;1.70;;
79401;SDS011;68857;47.916;106.940;2023-09-19T09:55:04;4.40;;;1.92;;
79401;SDS011;68857;47.916;106.940;2023-09-19T09:57:33;3.40;;;2.22;;
79401;SDS011;68857;47.916;106.940;2023-09-19T10:00:00;4.25;;;2.72;;
79401;SDS011;68857;47.916;106.940;2023-09-19T10:02:39;3.92;;;2.30;;
79401;SDS011;68857;47.916;106.940;2023-09-19T10:05:16;6.25;;;1.60;;
79401;SDS011;68857;47.916;106.940;2023-09-19T10:07:45;4.05;;;2.78;;
79401;SDS011;68857;47.916;106.940;2023-09-19T10:10:34;2.80;;;2.17;;
79401;SDS011;68857;47.916;106.940;2023-09-19T10:13:07;4.35;;;2.22;;
79401;SDS011;68857;47.916;106.940;2023-09-19T10:15:37;4.50;;;1.58;;
79401;SDS011;68857;47.916;106.940;2023-09-19T10:18:10;4.70;;;1.75;;
79401;SDS011;68857;47.916;106.940;2023-09-19T10:20:42;6.30;;;2.45;;
79401;SDS011;68857;47.916;106.940;2023-09-19T10:23:11;5.05;;;2.40;;
79401;SDS011;68857;47.916;106.940;2023-09-19T10:25:39;4.63;;;2.88;;
79401;SDS011;68857;47.916;106.940;2023-09-19T10:28:15;3.85;;;2.60;;
79401;SDS011;68857;47.916;106.940;2023-09-19T10:30:47;4.13;;;2.20;;
79401;SDS011;68857;47.916;106.940;2023-09-19T10:33:15;4.32;;;2.05;;
79401;SDS011;68857;47.916;106.940;2023-09-19T10:35:43;4.55;;;2.25;;
79401;SDS011;68857;47.916;106.940;2023-09-19T10:38:10;11.00;;;6.13;;
79401;SDS011;68857;47.916;106.940;2023-09-19T10:40:37;19.25;;;9.48;;
79401;SDS011;68857;47.916;106.940;2023-09-19T10:43:18;14.93;;;8.40;;
79401;SDS011;68857;47.916;106.940;2023-09-19T10:45:46;21.42;;;10.40;;
79401;SDS011;68857;47.916;106.940;2023-09-19T10:48:19;32.83;;;18.45;;
79401;SDS011;68857;47.916;106.940;2023-09-19T10:53:43;52.25;;;27.80;;
79401;SDS011;68857;47.916;106.940;2023-09-19T10:56:15;48.35;;;25.02;;
79401;SDS011;68857;47.916;106.940;2023-09-19T10:58:43;31.98;;;17.27;;
79401;SDS011;68857;47.916;106.940;2023-09-19T11:01:10;37.08;;;17.15;;
79401;SDS011;68857;47.916;106.940;2023-09-19T11:03:41;28.95;;;15.32;;
79401;SDS011;68857;47.916;106.940;2023-09-19T11:22:29;29.90;;;13.85;;
79401;SDS011;68857;47.916;106.940;2023-09-19T11:30:48;31.10;;;16.35;;
79401;SDS011;68857;47.916;106.940;2023-09-19T11:43:53;33.72;;;18.35;;
79401;SDS011;68857;47.916;106.940;2023-09-19T11:46:25;33.70;;;16.65;;
79401;SDS011;68857;47.916;106.940;2023-09-19T11:48:53;34.95;;;17.55;;
79401;SDS011;68857;47.916;106.940;2023-09-19T11:51:22;29.50;;;14.82;;
79401;SDS011;68857;47.916;106.940;2023-09-19T11:53:57;31.15;;;16.48;;
79401;SDS011;68857;47.916;106.940;2023-09-19T11:56:28;27.20;;;14.85;;
79401;SDS011;68857;47.916;106.940;2023-09-19T11:58:57;33.80;;;14.18;;
79401;SDS011;68857;47.916;106.940;2023-09-19T12:01:32;37.42;;;17.08;;
79401;SDS011;68857;47.916;106.940;2023-09-19T12:04:01;51.65;;;21.17;;
79401;SDS011;68857;47.916;106.940;2023-09-19T12:06:29;81.90;;;29.25;;
79401;SDS011;68857;47.916;106.940;2023-09-19T12:08:59;110.80;;;37.63;;
79401;SDS011;68857;47.916;106.940;2023-09-19T12:11:31;120.22;;;41.63;;
79401;SDS011;68857;47.916;106.940;2023-09-19T12:14:00;122.65;;;42.53;;
79401;SDS011;68857;47.916;106.940;2023-09-19T12:16:28;134.38;;;49.83;;
79401;SDS011;68857;47.916;106.940;2023-09-19T12:18:58;136.55;;;48.00;;
79401;SDS011;68857;47.916;106.940;2023-09-19T12:21:53;114.28;;;46.85;;
79401;SDS011;68857;47.916;106.940;2023-09-19T12:24:22;120.78;;;47.53;;
79401;SDS011;68857;47.916;106.940;2023-09-19T12:26:51;123.57;;;44.85;;
79401;SDS011;68857;47.916;106.940;2023-09-19T12:29:19;121.55;;;44.60;;
79401;SDS011;68857;47.916;106.940;2023-09-19T12:34:29;116.65;;;42.83;;
79401;SDS011;68857;47.916;106.940;2023-09-19T12:37:14;107.53;;;43.13;;
79401;SDS011;68857;47.916;106.940;2023-09-19T12:39:47;103.55;;;40.90;;
79401;SDS011;68857;47.916;106.940;2023-09-19T12:42:15;89.70;;;43.35;;
79401;SDS011;68857;47.916;106.940;2023-09-19T12:44:43;89.43;;;39.60;;
79401;SDS011;68857;47.916;106.940;2023-09-19T12:47:11;85.68;;;38.90;;
79401;SDS011;68857;47.916;106.940;2023-09-19T12:52:24;81.25;;;41.30;;
79401;SDS011;68857;47.916;106.940;2023-09-19T12:54:51;88.40;;;40.30;;
79401;SDS011;68857;47.916;106.940;2023-09-19T12:57:24;76.18;;;36.60;;
79401;SDS011;68857;47.916;106.940;2023-09-19T12:59:54;66.72;;;35.15;;
79401;SDS011;68857;47.916;106.940;2023-09-19T13:02:22;64.13;;;31.60;;
79401;SDS011;68857;47.916;106.940;2023-09-19T13:04:54;56.58;;;27.60;;
79401;SDS011;68857;47.916;106.940;2023-09-19T13:07:45;57.10;;;26.85;;
79401;SDS011;68857;47.916;106.940;2023-09-19T13:10:13;55.25;;;26.58;;
79401;SDS011;68857;47.916;106.940;2023-09-19T13:12:42;60.15;;;27.58;;
79401;SDS011;68857;47.916;106.940;2023-09-19T13:15:13;55.78;;;24.38;;
79401;SDS011;68857;47.916;106.940;2023-09-19T13:17:45;53.25;;;26.10;;
79401;SDS011;68857;47.916;106.940;2023-09-19T13:20:26;51.53;;;24.08;;
79401;SDS011;68857;47.916;106.940;2023-09-19T13:22:57;43.97;;;22.27;;
79401;SDS011;68857;47.916;106.940;2023-09-19T13:25:26;41.47;;;21.33;;
79401;SDS011;68857;47.916;106.940;2023-09-19T13:27:55;41.47;;;19.85;;
79401;SDS011;68857;47.916;106.940;2023-09-19T13:30:23;41.65;;;20.73;;
79401;SDS011;68857;47.916;106.940;2023-09-19T13:32:50;41.92;;;21.50;;
79401;SDS011;68857;47.916;106.940;2023-09-19T13:35:18;37.92;;;19.38;;
79401;SDS011;68857;47.916;106.940;2023-09-19T13:37:47;40.63;;;17.98;;
79401;SDS011;68857;47.916;106.940;2023-09-19T13:40:17;31.88;;;16.63;;
79401;SDS011;68857;47.916;106.940;2023-09-19T13:42:43;35.15;;;17.02;;
79401;SDS011;68857;47.916;106.940;2023-09-19T13:45:10;35.17;;;16.55;;
79401;SDS011;68857;47.916;106.940;2023-09-19T13:47:42;36.83;;;16.17;;
79401;SDS011;68857;47.916;106.940;2023-09-19T13:50:09;31.77;;;16.45;;
79401;SDS011;68857;47.916;106.940;2023-09-19T13:52:35;33.08;;;16.25;;
79401;SDS011;68857;47.916;106.940;2023-09-19T13:55:03;29.25;;;15.18;;
79401;SDS011;68857;47.916;106.940;2023-09-19T13:57:32;30.17;;;14.85;;
79401;SDS011;68857;47.916;106.940;2023-09-19T13:59:59;30.27;;;15.23;;
79401;SDS011;68857;47.916;106.940;2023-09-19T14:02:25;29.38;;;14.90;;
79401;SDS011;68857;47.916;106.940;2023-09-19T14:04:52;29.17;;;15.10;;
79401;SDS011;68857;47.916;106.940;2023-09-19T14:07:19;26.83;;;14.15;;
79401;SDS011;68857;47.916;106.940;2023-09-19T14:09:46;27.25;;;13.57;;
79401;SDS011;68857;47.916;106.940;2023-09-19T14:12:13;27.33;;;13.48;;
79401;SDS011;68857;47.916;106.940;2023-09-19T14:14:40;24.98;;;13.65;;
79401;SDS011;68857;47.916;106.940;2023-09-19T14:17:07;27.83;;;13.68;;
79401;SDS011;68857;47.916;106.940;2023-09-19T14:19:34;28.58;;;13.10;;
79401;SDS011;68857;47.916;106.940;2023-09-19T14:22:01;33.33;;;14.38;;
79401;SDS011;68857;47.916;106.940;2023-09-19T14:24:32;27.98;;;14.70;;
79401;SDS011;68857;47.916;106.940;2023-09-19T14:27:00;28.23;;;13.25;;
79401;SDS011;68857;47.916;106.940;2023-09-19T14:29:29;30.25;;;13.10;;
79401;SDS011;68857;47.916;106.940;2023-09-19T14:31:56;27.00;;;12.80;;
79401;SDS011;68857;47.916;106.940;2023-09-19T14:34:22;29.50;;;12.63;;
79401;SDS011;68857;47.916;106.940;2023-09-19T14:36:49;25.40;;;12.15;;
79401;SDS011;68857;47.916;106.940;2023-09-19T14:39:16;26.23;;;12.20;;
79401;SDS011;68857;47.916;106.940;2023-09-19T14:41:42;25.77;;;12.70;;
79401;SDS011;68857;47.916;106.940;2023-09-19T14:44:09;23.77;;;11.43;;
79401;SDS011;68857;47.916;106.940;2023-09-19T14:46:36;24.88;;;12.40;;
79401;SDS011;68857;47.916;106.940;2023-09-19T14:49:03;22.38;;;11.43;;
79401;SDS011;68857;47.916;106.940;2023-09-19T14:51:30;22.17;;;12.00;;
79401;SDS011;68857;47.916;106.940;2023-09-19T14:53:56;23.25;;;11.27;;
79401;SDS011;68857;47.916;106.940;2023-09-19T14:56:23;21.70;;;10.38;;
79401;SDS011;68857;47.916;106.940;2023-09-19T14:58:50;23.25;;;10.20;;
79401;SDS011;68857;47.916;106.940;2023-09-19T15:01:17;23.42;;;11.15;;
79401;SDS011;68857;47.916;106.940;2023-09-19T15:03:43;23.58;;;10.95;;
79401;SDS011;68857;47.916;106.940;2023-09-19T15:06:12;22.27;;;10.32;;
79401;SDS011;68857;47.916;106.940;2023-09-19T15:08:40;23.95;;;13.05;;
79401;SDS011;68857;47.916;106.940;2023-09-19T15:11:08;24.58;;;11.02;;
79401;SDS011;68857;47.916;106.940;2023-09-19T15:13:36;29.75;;;15.30;;
79401;SDS011;68857;47.916;106.940;2023-09-19T15:16:04;30.33;;;15.70;;